Vaaraa aiheuttavia sääilmiöitä ei ole odotettavissa.    Ei varoituksia

Webkamera Lisätietoa Webcam


Yksityisiä sääasemia lähellä:

Sääasema Juupajoki

Sääasema Orivesi

Sääasema Muurame

Sääasema Jyväskylä

Sääasema Vihtavuori


Löydät sääaseman tiedot myös:

Finland Weather Exchange

European Weather Network

Weather Underground

AWEKAS

Windy.com



Säätiedot lähimmiltä METAR asemilta

   
EFHA - Halli (Fin-Afb), Finland
Etäisyys asemalta: Kaakko 25 km
Päivitetty: 19.10.2019 13:20
Sadekuuroja, Sade, Pilvistä  
Sadekuuroja, Sade, Pilvistä  
   Tuuli: Etelä 4.6 m/s
Tuuli: Etelä 4.6 m/s
Lämpötila: 11°C
Kastepiste: 11°C
Kosteus: 100%
Ilmanpaine: 1002 hPa
Pilvisyys: Pilvistä
Näkyvyys: Enemmän kuin 10 km
Pilvitiedot: Pilvistä 152 m,
Ukkosta
EFHA 191020Z AUTO 18009KT 150V230 9999 SHRA OVC005 //////CB 11/11 Q1002
EFJY - Jyvaskyla (Mil/Civ), Finland
Etäisyys asemalta: Koillinen 75 km
Päivitetty: 19.10.2019 13:20
Lähialueella sadekuuroja, Pilvistä  
Lähialueella sadekuuroja, Pilvistä  
   Tuuli: Eteläkaakko 3.6 m/s
Tuuli: Eteläkaakko 3.6 m/s
Lämpötila: 9°C
Tuulen hyytävyys: 7°C
Kastepiste: 9°C
Kosteus: 100%
Ilmanpaine: 1002 hPa
Pilvisyys: Pilvistä
Näkyvyys: Enemmän kuin 10 km
Pilvitiedot: Pilvistä 61 m,
Ukkosta
EFJY 191020Z AUTO 15007KT 9999 VCSH OVC002 //////CB 09/09 Q1002
EFTP - Tampere/Pirkkala, Finland
Etäisyys asemalta: Lounas 81 km
Päivitetty: 19.10.2019 13:20
Melkein pilvistä  
Melkein pilvistä  
   Tuuli: Etelä 4.1 m/s
Tuuli: Etelä 4.1 m/s
Lämpötila: 12°C
Kastepiste: 10°C
Kosteus: 88%
Ilmanpaine: 1003 hPa
Pilvisyys: Melkein pilvistä
Näkyvyys: Enemmän kuin 10 km
Pilvitiedot: Vähäistä pilvisyyttä 366 m,
Melkein pilvistä 1067 m,
Melkein pilvistä 1219 m
EFTP 191020Z AUTO 19008KT 9999 FEW012 BKN035 BKN040 12/10 Q1003
EFSI - Seinajoki-Ilmajoki, Finland
Etäisyys asemalta: Luode 114 km
Päivitetty: 19.10.2019 13:20
Rankkasadetta, Melkein pilvistä  
Rankkasadetta, Melkein pilvistä  
   Tuuli: Kaakko 3.6 m/s
Tuuli: Kaakko 3.6 m/s
Lämpötila: 9°C
Tuulen hyytävyys: 7°C
Kastepiste: 9°C
Kosteus: 100%
Ilmanpaine: 1000 hPa
Pilvisyys: Melkein pilvistä
Näkyvyys: 6 km
Pilvitiedot: Vähäistä pilvisyyttä 61 m,
Puolipilvistä 122 m,
Melkein pilvistä 579 m,
Melkein pilvistä 975 m
EFSI 191020Z AUTO 13007KT 6000 +RA FEW002 SCT004 BKN019 BKN032 09/09 Q1000
EFMI - Mikkeli, Finland
Etäisyys asemalta: Itäkaakko 147 km
Päivitetty: 19.10.2019 13:20
Pilvistä  
Pilvistä  
   Tuuli: Kaakko 3.1 m/s
Tuuli: Kaakko 3.1 m/s
Lämpötila: 10°C
Tuulen hyytävyys: 8°C
Kastepiste: 10°C
Kosteus: 100%
Ilmanpaine: 1004 hPa
Pilvisyys: Pilvistä
Näkyvyys: 5 km
Pilvitiedot: Pilvistä 61 m
EFMI 191020Z AUTO 14006KT 100V180 5000 OVC002 10/10 Q1004
EFPO - Pori (Mil/Civ), Finland
Etäisyys asemalta: Länsilounas 154 km
Päivitetty: 19.10.2019 13:20
Heikkoa sadetta, Pilvistä  
Heikkoa sadetta, Pilvistä  
   Tuuli: Etelälounas 5.1 m/s
Tuuli: Etelälounas 5.1 m/s
Lämpötila: 11°C
Kastepiste: 10°C
Kosteus: 94%
Ilmanpaine: 1001 hPa
Pilvisyys: Pilvistä
Näkyvyys: Enemmän kuin 10 km
Pilvitiedot: Melkein pilvistä 305 m,
Pilvistä 427 m
EFPO 191020Z AUTO 20010KT 180V250 9999 -RA BKN010/// OVC014/// 11/10 Q1001
EFUT - Utti (Fin-Afb), Finland
Etäisyys asemalta: Kaakko 180 km
Päivitetty: 19.10.2019 13:20
Heikkoa sadetta, Pilvistä  
Heikkoa sadetta, Pilvistä  
   Tuuli: Etelä 5.1 m/s
Tuuli: Etelä 5.1 m/s
Lämpötila: 11°C
Kastepiste: 11°C
Kosteus: 100%
Ilmanpaine: 1005 hPa
Pilvisyys: Pilvistä
Näkyvyys: 4 km
Pilvitiedot: Pilvistä 31 m
EFUT 191020Z AUTO 19010KT 160V220 4000 -RA OVC001 11/11 Q1005
EFVA - Vaasa, Finland
Etäisyys asemalta: Luode 180 km
Päivitetty: 19.10.2019 13:20
Rankkasadekuuroja, Sade, Pilvistä  
Rankkasadekuuroja, Sade, Pilvistä  
   Tuuli: Itä 2.1 m/s
Tuuli: Itä 2.1 m/s
Lämpötila: 8°C
Tuulen hyytävyys: 7°C
Kastepiste: 8°C
Kosteus: 100%
Ilmanpaine: 1000 hPa
Pilvisyys: Pilvistä
Näkyvyys: 3 km
Pilvitiedot: Pilvistä 122 m,
Ukkosta
EFVA 191020Z AUTO 09004KT 060V130 2900 +SHRA OVC004 //////CB 08/08 Q1000
EFHK - Helsinki/Vantaa, Finland
Etäisyys asemalta: Etelä 191 km
Päivitetty: 19.10.2019 13:20
Melkein pilvistä  
Melkein pilvistä  
   Tuuli: Etelälounas 5.7 m/s
Tuuli: Etelälounas 5.7 m/s
Lämpötila: 12°C
Kastepiste: 11°C
Kosteus: 94%
Ilmanpaine: 1005 hPa
Pilvisyys: Melkein pilvistä
Näkyvyys: Enemmän kuin 10 km
Pilvitiedot: Puolipilvistä 244 m,
Melkein pilvistä 335 m
EFHK 191020Z 21011KT 9999 SCT008 BKN011 12/11 Q1005 BECMG BKN020

Alkuperäinen skripti  Saratoga-weather.org Sovitettu myös templatelle  Weerstation Leuven

Laitteet joita käytämme:

Sääasema
Davis VP2

Sääasemaohjelma
Cumulus

Sääaseman palvelin
HP ProBook 6460b

Palveluntarjoaja
Radicenter

Davis VP2

Cumulus

HP ProBook 6460b

Radicenter




Flag Counter Cumulus Top Weather Sites